Time;durP1;ratioP1;P1;durP2;ratioP2;P2;SDS_P1;SDS_P2;PMS_P1;PMS_P2;Temp;Humidity;BMP_temperature;BMP_pressure;BME280_temperature;BME280_humidity;BME280_pressure;Samples;Min_cycle;Max_cycle;Signal;HPM_P1;HPM_P2
2021/08/01 00:00:17;;;;;;;9.82;6.22;;;;;;;21.21;55.06;97842.53;5094645;28;20492;-72
2021/08/01 00:02:43;;;;;;;10.02;5.85;;;;;;;21.23;55.17;97842.97;5094168;28;20519;-72
2021/08/01 00:05:10;;;;;;;10.43;6.47;;;;;;;21.25;55.07;97848.19;5094329;28;20072;-72
2021/08/01 00:07:37;;;;;;;12.35;6.40;;;;;;;21.26;55.00;97842.19;5094251;28;20023;-72
2021/08/01 00:10:05;;;;;;;9.65;6.60;;;;;;;21.25;54.99;97859.34;5094298;28;20382;-72
2021/08/01 00:12:30;;;;;;;9.75;6.65;;;;;;;21.25;54.95;97850.97;5094193;28;20085;-70
2021/08/01 00:14:56;;;;;;;11.18;6.63;;;;;;;21.26;55.25;97858.16;5093948;28;20433;-70
2021/08/01 00:17:22;;;;;;;11.00;6.95;;;;;;;21.25;55.17;97864.91;5094459;28;20055;-70
2021/08/01 00:19:49;;;;;;;9.43;6.95;;;;;;;21.25;55.28;97860.13;5094165;28;20020;-70
2021/08/01 00:22:14;;;;;;;9.05;6.05;;;;;;;21.27;55.24;97863.31;5094037;28;20058;-70
2021/08/01 00:24:40;;;;;;;10.50;6.07;;;;;;;21.29;55.44;97865.75;5093917;28;20051;-70
2021/08/01 00:27:05;;;;;;;9.57;5.60;;;;;;;21.30;55.29;97861.78;5094063;28;20513;-70
2021/08/01 00:29:31;;;;;;;9.32;5.35;;;;;;;21.32;55.19;97873.34;5094035;28;20030;-71
2021/08/01 00:31:59;;;;;;;8.32;5.47;;;;;;;21.35;55.39;97875.38;5093759;28;20081;-71
2021/08/01 00:34:24;;;;;;;7.90;5.90;;;;;;;21.35;54.93;97874.56;5093808;28;20020;-70
2021/08/01 00:36:49;;;;;;;9.20;5.05;;;;;;;21.35;54.86;97871.78;5093933;28;20043;-72
2021/08/01 00:39:15;;;;;;;7.07;5.07;;;;;;;21.37;54.85;97861.84;5093697;28;20020;-72
2021/08/01 00:41:40;;;;;;;7.32;4.93;;;;;;;21.39;54.78;97865.06;5092282;28;20048;-71
2021/08/01 00:44:05;;;;;;;7.75;5.10;;;;;;;21.41;54.62;97861.88;5093546;28;20107;-71
2021/08/01 00:46:31;;;;;;;9.82;6.32;;;;;;;21.44;54.53;97863.91;5093669;28;20024;-71
2021/08/01 00:48:56;;;;;;;9.45;6.47;;;;;;;21.42;54.73;97871.84;5093694;28;20016;-71
2021/08/01 00:51:22;;;;;;;8.57;6.63;;;;;;;21.44;54.65;97871.44;5093471;28;20024;-71
2021/08/01 00:53:47;;;;;;;9.68;6.57;;;;;;;21.40;54.54;97863.06;5093513;28;20485;-71
2021/08/01 00:56:15;;;;;;;9.25;6.35;;;;;;;21.38;54.68;97852.31;5093334;28;20099;-71
2021/08/01 00:58:40;;;;;;;10.25;6.40;;;;;;;21.36;54.70;97840.72;5093402;28;20031;-71
2021/08/01 01:01:11;;;;;;;12.27;6.70;;;;;;;21.34;54.72;97845.88;5092114;28;20020;-71
2021/08/01 01:03:42;;;;;;;16.48;6.47;;;;;;;21.33;54.87;97844.28;5091753;28;20432;-71
2021/08/01 01:06:14;;;;;;;10.43;6.47;;;;;;;21.30;54.92;97845.03;5092857;28;20031;-71
2021/08/01 01:08:57;;;;;;;9.32;6.25;;;;;;;21.26;54.75;97847.00;5091490;28;20048;-72
2021/08/01 01:11:27;;;;;;;8.77;5.95;;;;;;;21.21;54.86;97864.06;5092423;28;20031;-71
2021/08/01 01:13:54;;;;;;;11.43;6.70;;;;;;;21.18;55.10;97853.69;5092897;28;20146;-71
2021/08/01 01:16:20;;;;;;;8.52;6.32;;;;;;;21.13;55.08;97852.03;5091703;28;20035;-71
2021/08/01 01:18:48;;;;;;;10.30;6.43;;;;;;;21.11;55.04;97854.41;5093163;28;20028;-71
2021/08/01 01:21:19;;;;;;;9.32;6.57;;;;;;;21.07;55.00;97851.56;5092946;28;20610;-71
2021/08/01 01:23:53;;;;;;;10.88;6.95;;;;;;;21.03;55.07;97853.50;5091425;28;20036;-71
2021/08/01 01:26:18;;;;;;;9.90;6.70;;;;;;;21.02;55.22;97851.13;5091116;28;20467;-71
2021/08/01 01:29:14;;;;;;;10.88;7.22;;;;;;;20.99;55.39;97851.88;5089666;28;20030;-72
2021/08/01 01:31:45;;;;;;;10.60;7.20;;;;;;;20.93;55.31;97854.22;5089795;28;20036;-71
2021/08/01 01:34:13;;;;;;;15.30;7.47;;;;;;;20.90;55.59;97854.97;5089830;28;20024;-71
2021/08/01 01:36:42;;;;;;;11.85;7.03;;;;;;;20.86;55.71;97856.91;5091037;28;20016;-71
2021/08/01 01:39:08;;;;;;;13.25;7.80;;;;;;;20.86;56.00;97851.34;5091916;28;20020;-72
2021/08/01 01:41:36;;;;;;;10.43;7.20;;;;;;;20.82;55.98;97849.31;5092939;28;20016;-71
2021/08/01 01:44:04;;;;;;;9.25;6.53;;;;;;;20.80;56.05;97845.28;5092812;28;20028;-71
2021/08/01 01:46:30;;;;;;;8.83;6.63;;;;;;;20.81;55.86;97842.13;5092801;28;20385;-71
2021/08/01 01:48:57;;;;;;;9.88;6.95;;;;;;;20.86;56.40;97831.84;5092851;28;20016;-71
2021/08/01 01:51:22;;;;;;;10.00;6.95;;;;;;;20.86;56.65;97826.25;5092745;28;20106;-71
2021/08/01 01:53:49;;;;;;;10.85;7.63;;;;;;;20.87;56.30;97827.84;5092922;28;20028;-71
2021/08/01 01:56:15;;;;;;;9.63;6.72;;;;;;;20.88;56.51;97823.91;5092895;28;20469;-72
2021/08/01 01:58:41;;;;;;;9.35;6.65;;;;;;;20.90;56.54;97822.31;5092674;28;20095;-71
2021/08/01 02:01:06;;;;;;;11.32;7.28;;;;;;;20.90;56.68;97821.53;5092574;28;20490;-71
2021/08/01 02:03:33;;;;;;;10.55;7.38;;;;;;;20.91;56.29;97818.34;5092074;28;20048;-71
2021/08/01 02:05:58;;;;;;;12.35;7.38;;;;;;;20.89;56.73;97817.91;5092504;28;20028;-71
2021/08/01 02:08:24;;;;;;;13.45;7.82;;;;;;;20.87;56.84;97825.06;5092585;28;20393;-72
2021/08/01 02:10:56;;;;;;;12.52;8.65;;;;;;;20.88;56.86;97824.69;5091175;28;20024;-71
2021/08/01 02:13:33;;;;;;;13.63;8.57;;;;;;;20.89;57.14;97825.50;5092531;28;20024;-71
2021/08/01 02:16:00;;;;;;;12.38;8.15;;;;;;;20.89;57.23;97826.28;5092439;28;20032;-71
2021/08/01 02:18:40;;;;;;;12.75;8.23;;;;;;;20.89;57.20;97826.28;5092427;28;20020;-71
2021/08/01 02:21:06;;;;;;;10.43;7.72;;;;;;;20.90;57.11;97827.88;5092402;28;20028;-71
2021/08/01 02:23:36;;;;;;;10.93;7.80;;;;;;;20.92;57.20;97825.53;5092350;28;20038;-71
2021/08/01 02:26:05;;;;;;;8.77;6.82;;;;;;;20.93;57.13;97821.56;5089748;28;20054;-72
2021/08/01 02:28:32;;;;;;;10.45;7.57;;;;;;;20.94;57.61;97825.16;5091004;28;20024;-72
2021/08/01 02:30:59;;;;;;;12.20;7.38;;;;;;;20.96;57.33;97829.16;5090749;28;20075;-72
2021/08/01 02:33:28;;;;;;;11.02;7.32;;;;;;;20.97;57.23;97822.41;5092310;28;20035;-71
2021/08/01 02:36:02;;;;;;;10.60;7.43;;;;;;;20.99;57.30;97827.56;5094205;28;20024;-71
2021/08/01 02:38:29;;;;;;;9.57;7.43;;;;;;;21.01;57.30;97822.44;5094802;28;20024;-71
2021/08/01 02:40:57;;;;;;;11.38;7.25;;;;;;;21.04;57.41;97813.28;5096186;28;20024;-71
2021/08/01 02:43:27;;;;;;;10.13;7.45;;;;;;;21.07;57.38;97808.97;5095982;28;20035;-71
2021/08/01 02:45:54;;;;;;;12.60;6.88;;;;;;;21.06;57.01;97812.94;5096127;28;20107;-71
2021/08/01 02:48:22;;;;;;;9.82;7.28;;;;;;;21.08;57.36;97821.72;5095938;28;20031;-71
2021/08/01 02:51:01;;;;;;;14.27;6.90;;;;;;;21.07;57.00;97806.19;5096026;28;20024;-71
2021/08/01 02:53:29;;;;;;;12.43;6.75;;;;;;;21.07;56.80;97806.19;5096158;28;20059;-71
2021/08/01 02:55:59;;;;;;;9.38;6.47;;;;;;;21.05;56.59;97814.13;5096129;28;20060;-71
2021/08/01 02:58:29;;;;;;;9.18;5.80;;;;;;;21.02;56.49;97829.59;5096110;28;20031;-71
2021/08/01 03:00:56;;;;;;;8.52;5.55;;;;;;;20.96;56.54;97833.94;5095907;28;20021;-71
2021/08/01 03:03:22;;;;;;;8.85;5.70;;;;;;;20.89;56.04;97842.22;5095391;28;20078;-71
2021/08/01 03:05:47;;;;;;;8.63;5.80;;;;;;;20.83;56.42;97847.31;5095724;28;20020;-71
2021/08/01 03:08:14;;;;;;;9.68;6.20;;;;;;;20.75;56.25;97840.84;5095765;28;20032;-72
2021/08/01 03:10:43;;;;;;;11.90;6.47;;;;;;;20.70;56.49;97846.72;5095712;28;20028;-71
2021/08/01 03:13:09;;;;;;;10.70;6.93;;;;;;;20.67;56.63;97847.50;5095438;28;20028;-72
2021/08/01 03:15:34;;;;;;;10.23;6.75;;;;;;;20.61;56.56;97838.66;5095704;28;20381;-71
2021/08/01 03:17:59;;;;;;;11.07;6.30;;;;;;;20.59;56.33;97837.44;5095483;28;20103;-72
2021/08/01 03:20:25;;;;;;;8.35;6.20;;;;;;;20.55;56.33;97848.53;5095509;28;20115;-71
2021/08/01 03:22:50;;;;;;;8.73;6.03;;;;;;;20.51;56.27;97842.94;5095541;28;20067;-71
2021/08/01 03:25:15;;;;;;;8.18;5.65;;;;;;;20.47;56.06;97841.25;5095446;28;20028;-71
2021/08/01 03:27:41;;;;;;;6.75;5.40;;;;;;;20.46;56.30;97834.91;5095369;28;20025;-71
2021/08/01 03:30:07;;;;;;;10.20;5.47;;;;;;;20.47;56.11;97835.69;5095175;28;20024;-71
2021/08/01 03:32:32;;;;;;;8.38;5.00;;;;;;;20.48;56.05;97818.63;5095332;28;20082;-71
2021/08/01 03:34:57;;;;;;;7.25;5.10;;;;;;;20.50;56.05;97813.47;5095416;28;20028;-71
2021/08/01 03:37:26;;;;;;;10.85;6.60;;;;;;;20.53;56.09;97803.53;5093864;28;20034;-71
2021/08/01 03:39:52;;;;;;;8.05;5.75;;;;;;;20.55;55.83;97795.63;5095071;28;20020;-71
2021/08/01 03:42:17;;;;;;;5.90;4.65;;;;;;;20.54;55.62;97802.38;5094817;28;20020;-72
2021/08/01 03:44:43;;;;;;;9.82;4.82;;;;;;;20.52;55.58;97813.09;5094917;28;20028;-71
2021/08/01 03:47:08;;;;;;;6.53;4.82;;;;;;;20.51;55.68;97811.47;5094559;28;20059;-71
2021/08/01 03:49:34;;;;;;;8.73;5.18;;;;;;;20.49;55.71;97811.06;5094691;28;20542;-71
2021/08/01 03:51:59;;;;;;;7.78;4.80;;;;;;;20.51;55.53;97823.44;5094776;28;20035;-71
2021/08/01 03:54:25;;;;;;;8.15;5.30;;;;;;;20.51;55.52;97828.19;5094652;28;20024;-71
2021/08/01 03:56:50;;;;;;;7.90;5.10;;;;;;;20.49;55.43;97831.38;5094690;28;20044;-70
2021/08/01 03:59:16;;;;;;;6.57;4.95;;;;;;;20.50;55.37;97827.41;5094640;28;20099;-71
2021/08/01 04:01:41;;;;;;;8.20;5.20;;;;;;;20.52;55.41;97824.22;5093284;28;20016;-71
2021/08/01 04:04:06;;;;;;;6.68;4.95;;;;;;;20.51;55.44;97822.63;5094457;28;20075;-71
2021/08/01 04:06:35;;;;;;;11.15;5.10;;;;;;;20.52;55.25;97818.66;5094571;28;20024;-71
2021/08/01 04:09:04;;;;;;;8.90;4.88;;;;;;;20.49;54.86;97819.41;5094529;28;20034;-72
2021/08/01 04:11:29;;;;;;;6.95;5.07;;;;;;;20.50;55.03;97798.72;5094552;28;20028;-71
2021/08/01 04:13:55;;;;;;;11.82;6.15;;;;;;;20.52;54.51;97790.81;5094446;28;20030;-72
2021/08/01 04:16:20;;;;;;;8.98;5.40;;;;;;;20.51;54.83;97790.00;5094367;28;20024;-72
2021/08/01 04:18:45;;;;;;;12.57;5.60;;;;;;;20.49;55.16;97777.63;5094537;28;20028;-71
2021/08/01 04:21:12;;;;;;;9.43;5.38;;;;;;;20.46;55.07;97775.59;5094332;28;20031;-72
2021/08/01 04:23:39;;;;;;;9.07;5.40;;;;;;;20.46;55.49;97754.13;5094146;28;20442;-72
2021/08/01 04:26:06;;;;;;;7.60;5.47;;;;;;;20.48;55.27;97762.09;5094223;28;20024;-71
2021/08/01 04:28:32;;;;;;;9.15;5.22;;;;;;;20.45;55.17;97762.84;5094306;28;20541;-71
2021/08/01 04:30:58;;;;;;;7.30;5.28;;;;;;;20.46;54.99;97765.28;5094248;28;20066;-71
2021/08/01 04:33:23;;;;;;;8.60;5.38;;;;;;;20.48;55.22;97767.66;5094026;28;20024;-71
2021/08/01 04:35:49;;;;;;;7.78;5.03;;;;;;;20.47;55.46;97766.06;5094187;28;20028;-72
2021/08/01 04:38:14;;;;;;;8.93;5.00;;;;;;;20.44;55.44;97778.78;5094016;28;20024;-71
2021/08/01 04:40:39;;;;;;;6.43;4.70;;;;;;;20.38;54.89;97780.28;5092648;28;20031;-71
2021/08/01 04:43:05;;;;;;;7.82;5.22;;;;;;;20.36;55.27;97771.50;5093786;28;20039;-71
2021/08/01 04:45:30;;;;;;;7.63;5.00;;;;;;;20.34;55.36;97765.53;5093821;28;20034;-72
2021/08/01 04:47:55;;;;;;;7.07;4.97;;;;;;;20.33;55.62;97758.34;5093821;28;20020;-71
2021/08/01 04:50:21;;;;;;;7.78;4.82;;;;;;;20.37;55.42;97750.84;5093933;28;20069;-72
2021/08/01 04:52:49;;;;;;;6.70;5.18;;;;;;;20.40;55.45;97752.06;5094074;28;20113;-71
2021/08/01 04:55:15;;;;;;;7.30;5.25;;;;;;;20.46;55.51;97762.50;5093943;28;20039;-71
2021/08/01 04:57:40;;;;;;;8.43;5.50;;;;;;;20.51;55.89;97759.38;5093000;28;20021;-71
2021/08/01 05:00:07;;;;;;;7.68;5.60;;;;;;;20.56;55.66;97752.66;5092330;28;20034;-72
2021/08/01 05:02:32;;;;;;;8.65;5.30;;;;;;;20.61;55.76;97751.50;5093180;28;20536;-71
2021/08/01 05:05:01;;;;;;;8.45;5.47;;;;;;;20.64;55.79;97747.94;5093440;28;20048;-72
2021/08/01 05:07:26;;;;;;;7.20;5.35;;;;;;;20.66;55.72;97753.94;5093457;28;20077;-72
2021/08/01 05:09:51;;;;;;;9.20;5.35;;;;;;;20.70;55.63;97752.00;5092223;28;20020;-71
2021/08/01 05:12:17;;;;;;;9.45;5.30;;;;;;;20.75;55.72;97760.03;5093469;28;20020;-72
2021/08/01 05:14:43;;;;;;;13.68;5.75;;;;;;;20.81;55.53;97761.31;5093498;28;20066;-72
2021/08/01 05:17:08;;;;;;;9.55;5.18;;;;;;;20.86;55.72;97762.16;5093407;28;20059;-71
2021/08/01 05:19:41;;;;;;;7.55;5.70;;;;;;;20.90;55.74;97777.72;5093426;28;20062;-71
2021/08/01 05:22:07;;;;;;;8.77;5.95;;;;;;;20.94;55.56;97778.56;5093204;28;20465;-72
2021/08/01 05:24:35;;;;;;;9.93;6.07;;;;;;;20.95;55.16;97774.59;5093175;28;20056;-72
2021/08/01 05:27:01;;;;;;;10.95;5.93;;;;;;;20.91;55.19;97784.91;5091947;28;20024;-72
2021/08/01 05:29:26;;;;;;;8.82;5.18;;;;;;;20.94;55.19;97778.56;5092990;28;20465;-71
2021/08/01 05:31:52;;;;;;;12.95;5.78;;;;;;;20.98;55.37;97784.19;5091784;28;20035;-71
2021/08/01 05:34:17;;;;;;;8.80;5.43;;;;;;;21.02;55.06;97787.78;5093251;28;20020;-71
2021/08/01 05:36:42;;;;;;;10.85;5.80;;;;;;;21.04;55.32;97791.00;5093018;28;20034;-71
2021/08/01 05:39:08;;;;;;;8.32;5.60;;;;;;;21.05;55.33;97798.19;5093018;28;20110;-72
2021/08/01 05:41:33;;;;;;;7.18;5.55;;;;;;;21.06;55.55;97808.16;5091702;28;20020;-71
2021/08/01 05:43:58;;;;;;;7.72;5.28;;;;;;;21.05;55.34;97806.53;5092944;28;20173;-71
2021/08/01 05:46:24;;;;;;;8.38;5.38;;;;;;;21.07;55.43;97795.03;5092865;28;20048;-71
2021/08/01 05:48:49;;;;;;;9.27;5.85;;;;;;;21.09;55.42;97796.22;5091603;28;20024;-71
2021/08/01 05:51:14;;;;;;;8.60;4.97;;;;;;;21.12;55.63;97795.47;5092703;28;20492;-71
2021/08/01 05:53:40;;;;;;;10.38;6.13;;;;;;;21.14;55.62;97794.28;5093012;28;20546;-71
2021/08/01 05:56:07;;;;;;;8.30;5.47;;;;;;;21.14;55.68;97791.50;5092919;28;20486;-71
2021/08/01 05:58:32;;;;;;;9.60;6.03;;;;;;;21.16;55.73;97786.34;5091673;28;20070;-71
2021/08/01 06:00:57;;;;;;;9.75;5.97;;;;;;;21.17;55.72;97799.09;5093022;28;20024;-71
2021/08/01 06:03:23;;;;;;;8.80;5.60;;;;;;;21.21;55.93;97786.00;5092428;28;20089;-72
2021/08/01 06:05:48;;;;;;;11.70;6.25;;;;;;;21.23;55.89;97778.84;5092862;28;20024;-71
2021/08/01 06:08:13;;;;;;;10.18;5.95;;;;;;;21.24;55.97;97774.06;5092816;28;20458;-71
2021/08/01 06:10:39;;;;;;;9.82;6.07;;;;;;;21.26;55.71;97774.50;5096935;28;20063;-71
2021/08/01 06:13:04;;;;;;;10.98;6.03;;;;;;;21.29;55.81;97759.78;5095819;28;20035;-71
2021/08/01 06:15:29;;;;;;;10.45;6.20;;;;;;;21.31;55.90;97749.03;5097103;28;20055;-71
2021/08/01 06:17:55;;;;;;;11.27;5.80;;;;;;;21.31;55.88;97753.81;5097185;28;20035;-71
2021/08/01 06:20:20;;;;;;;11.00;6.20;;;;;;;21.27;55.09;97753.78;5096918;28;20106;-71
2021/08/01 06:22:45;;;;;;;9.13;6.47;;;;;;;21.26;55.60;97761.34;5096968;28;20419;-71
2021/08/01 06:25:10;;;;;;;11.13;6.20;;;;;;;21.27;55.83;97760.16;5096934;28;20465;-71
2021/08/01 06:27:36;;;;;;;10.02;5.82;;;;;;;21.29;56.16;97762.56;5097001;28;20028;-71
2021/08/01 06:30:02;;;;;;;9.25;6.40;;;;;;;21.30;56.11;97760.56;5096898;28;20376;-71
2021/08/01 06:32:27;;;;;;;7.72;6.35;;;;;;;21.31;56.29;97765.78;5096817;28;20105;-71
2021/08/01 06:34:53;;;;;;;12.18;7.00;;;;;;;21.33;55.94;97760.63;5096653;28;20056;-71
2021/08/01 06:37:18;;;;;;;9.60;6.40;;;;;;;21.32;56.13;97747.84;5096388;28;20115;-71
2021/08/01 06:39:43;;;;;;;13.07;6.60;;;;;;;21.34;56.23;97745.47;5096421;28;20426;-72
2021/08/01 06:42:09;;;;;;;10.65;7.22;;;;;;;21.33;56.30;97735.50;5096224;28;20093;-71
2021/08/01 06:44:34;;;;;;;10.40;6.78;;;;;;;21.30;56.22;97739.06;5096239;28;20020;-71
2021/08/01 06:47:00;;;;;;;12.95;7.68;;;;;;;21.27;56.60;97737.84;5096212;28;20036;-72
2021/08/01 06:49:25;;;;;;;12.63;6.85;;;;;;;21.26;56.38;97741.81;5096130;28;20051;-72
2021/08/01 06:51:50;;;;;;;14.85;7.63;;;;;;;21.27;56.66;97748.19;5096083;28;20432;-71
2021/08/01 06:54:16;;;;;;;14.98;7.68;;;;;;;21.23;56.69;97741.78;5096018;28;20053;-72
2021/08/01 06:56:41;;;;;;;8.98;6.95;;;;;;;21.20;56.98;97732.19;5094813;28;20028;-72
2021/08/01 06:59:06;;;;;;;9.32;7.10;;;;;;;21.19;57.05;97722.25;5094605;28;20082;-72
2021/08/01 07:01:32;;;;;;;11.20;7.65;;;;;;;21.16;56.88;97716.63;5095918;28;20024;-71
2021/08/01 07:03:57;;;;;;;11.23;7.50;;;;;;;21.10;57.44;97719.78;5094312;28;20076;-72
2021/08/01 07:06:22;;;;;;;13.43;7.63;;;;;;;21.05;57.49;97722.13;5095873;28;20036;-73
2021/08/01 07:08:47;;;;;;;10.45;7.43;;;;;;;20.99;57.48;97735.59;5095756;28;20023;-74
2021/08/01 07:11:13;;;;;;;13.23;8.18;;;;;;;20.98;58.04;97708.94;5094526;28;20020;-73
2021/08/01 07:13:39;;;;;;;15.45;8.60;;;;;;;20.98;58.34;97697.78;5095679;28;20051;-74
2021/08/01 07:16:05;;;;;;;13.45;8.18;;;;;;;20.98;58.42;97695.00;5095649;28;20059;-73
2021/08/01 07:18:31;;;;;;;14.40;9.70;;;;;;;20.96;58.60;97695.38;5095525;28;20039;-73
2021/08/01 07:20:57;;;;;;;54.72;22.38;;;;;;;20.97;59.12;97685.03;5095020;28;20024;-73
2021/08/01 07:23:23;;;;;;;30.92;17.17;;;;;;;20.99;59.10;97681.84;5094186;28;20046;-73
2021/08/01 07:25:48;;;;;;;284.20;82.78;;;;;;;21.00;59.06;97709.31;5094182;28;20020;-72
2021/08/01 07:28:14;;;;;;;187.07;52.80;;;;;;;21.02;59.42;97701.38;5094157;28;20020;-72
2021/08/01 07:30:39;;;;;;;174.95;62.78;;;;;;;21.05;59.54;97688.66;5093975;28;20097;-72
2021/08/01 07:33:04;;;;;;;244.63;108.32;;;;;;;21.07;59.79;97687.09;5095387;28;20051;-72
2021/08/01 07:35:30;;;;;;;54.28;38.05;;;;;;;21.15;59.65;97681.56;5095204;28;20382;-72
2021/08/01 07:37:55;;;;;;;28.55;21.70;;;;;;;21.16;60.09;97672.03;5095118;28;20420;-72
2021/08/01 07:40:21;;;;;;;18.05;12.32;;;;;;;21.17;59.91;97671.66;5095110;28;20032;-72
2021/08/01 07:42:46;;;;;;;15.10;10.38;;;;;;;21.18;59.92;97675.22;5094795;28;20028;-71
2021/08/01 07:45:29;;;;;;;15.93;10.30;;;;;;;21.16;60.24;97677.59;5095097;28;20026;-72
2021/08/01 07:47:55;;;;;;;14.07;9.43;;;;;;;21.14;60.29;97664.06;5095029;28;20041;-71
2021/08/01 07:50:20;;;;;;;13.98;9.05;;;;;;;21.18;60.31;97669.66;5095039;28;20020;-71
2021/08/01 07:52:45;;;;;;;14.85;9.70;;;;;;;21.22;60.58;97670.47;5094992;28;20093;-71
2021/08/01 07:55:15;;;;;;;14.85;9.73;;;;;;;21.24;60.64;97668.09;5095081;28;20051;-72
2021/08/01 07:57:40;;;;;;;;;;;;;;;21.31;60.72;97679.31;5095213;28;20504;-72
2021/08/01 08:00:06;;;;;;;14.30;9.80;;;;;;;21.31;60.69;97682.09;5094683;28;19908;-71
2021/08/01 08:02:32;;;;;;;13.35;10.10;;;;;;;21.34;60.93;97675.75;5094320;28;20286;-71
2021/08/01 08:04:57;;;;;;;14.38;10.25;;;;;;;21.38;60.83;97673.78;5094641;28;20039;-71
2021/08/01 08:07:22;;;;;;;14.82;9.68;;;;;;;21.41;60.56;97678.56;5093313;28;20031;-71
2021/08/01 08:09:49;;;;;;;16.48;10.65;;;;;;;21.45;60.77;97688.94;5094654;28;20028;-71
2021/08/01 08:12:15;;;;;;;18.58;11.25;;;;;;;21.41;61.19;97691.72;5094529;28;20028;-71
2021/08/01 08:14:40;;;;;;;15.15;10.15;;;;;;;21.37;60.75;97722.41;5094555;28;20473;-71
2021/08/01 08:17:06;;;;;;;18.17;11.05;;;;;;;21.36;60.91;97734.75;5093316;28;20031;-72
2021/08/01 08:19:32;;;;;;;19.70;11.93;;;;;;;21.36;61.10;97728.34;5094451;28;20153;-72
2021/08/01 08:21:58;;;;;;;20.75;15.30;;;;;;;21.33;61.00;97727.16;5094447;28;20076;-73
2021/08/01 08:24:24;;;;;;;20.25;13.40;;;;;;;21.31;61.14;97729.50;5094175;28;20085;-73
2021/08/01 08:26:49;;;;;;;18.33;12.52;;;;;;;21.29;61.05;97731.06;5094189;28;20074;-73
2021/08/01 08:29:15;;;;;;;29.98;13.55;;;;;;;21.24;61.35;97716.28;5094213;28;20107;-72
2021/08/01 08:31:44;;;;;;;19.02;12.73;;;;;;;21.18;61.45;97712.28;5092554;28;20028;-73
2021/08/01 08:34:09;;;;;;;15.77;10.93;;;;;;;21.14;61.50;97730.97;5093446;28;20469;-73
2021/08/01 08:36:35;;;;;;;16.83;10.75;;;;;;;21.09;61.55;97722.97;5094062;28;20327;-72
2021/08/01 08:39:00;;;;;;;13.60;10.77;;;;;;;21.07;61.68;97725.31;5094386;28;20028;-73
2021/08/01 08:41:26;;;;;;;17.85;11.80;;;;;;;21.04;61.62;97729.66;5094039;28;20027;-73
2021/08/01 08:43:51;;;;;;;18.70;12.95;;;;;;;20.97;62.11;97718.47;5092593;28;20032;-73
2021/08/01 08:46:18;;;;;;;18.58;13.18;;;;;;;20.87;62.27;97721.97;5092668;28;20021;-73
2021/08/01 08:48:44;;;;;;;21.60;13.35;;;;;;;20.78;62.32;97719.50;5093946;28;20012;-73
2021/08/01 08:51:11;;;;;;;17.23;11.80;;;;;;;20.70;62.23;97728.94;5093734;28;20218;-73
2021/08/01 08:53:42;;;;;;;17.13;10.57;;;;;;;20.65;62.18;97721.69;5093759;28;20107;-74
2021/08/01 08:56:09;;;;;;;17.77;11.40;;;;;;;20.59;63.34;97695.38;5093652;28;20022;-73
2021/08/01 08:58:35;;;;;;;19.23;12.88;;;;;;;20.53;62.70;97679.03;5093654;28;20016;-73
2021/08/01 09:01:00;;;;;;;19.60;16.33;;;;;;;20.48;63.10;97664.63;5093750;28;20027;-73
2021/08/01 09:03:26;;;;;;;21.10;14.05;;;;;;;20.40;63.03;97635.91;5093198;28;20131;-72
2021/08/01 09:05:56;;;;;;;20.80;13.43;;;;;;;20.36;62.88;97579.38;5093147;28;20114;-73
2021/08/01 09:08:21;;;;;;;18.42;12.13;;;;;;;20.29;63.33;97554.25;5093275;28;20093;-73
2021/08/01 09:10:46;;;;;;;20.33;12.98;;;;;;;20.20;63.70;97554.56;5093381;28;20474;-73
2021/08/01 09:13:12;;;;;;;27.40;20.05;;;;;;;20.13;63.92;97551.72;5093386;28;20024;-74
2021/08/01 09:15:37;;;;;;;20.25;15.35;;;;;;;20.02;65.02;97546.81;5093166;28;20403;-74
2021/08/01 09:18:11;;;;;;;20.55;13.52;;;;;;;19.93;64.73;97502.63;5093118;28;20093;-74
2021/08/01 09:20:48;;;;;;;19.25;12.18;;;;;;;19.88;64.83;97466.78;5093061;28;20016;-74
2021/08/01 09:23:13;;;;;;;19.23;13.43;;;;;;;19.84;65.39;97440.09;5093037;28;20039;-74
2021/08/01 09:25:42;;;;;;;18.98;12.10;;;;;;;19.81;65.61;97411.03;5093162;28;20028;-75
2021/08/01 09:28:08;;;;;;;17.63;11.13;;;;;;;;;;5091581;28;20026;-75
2021/08/01 09:30:47;;;;;;;16.30;10.50;;;;;;;19.76;66.09;97391.94;5092921;28;20442;-73
2021/08/01 09:33:16;;;;;;;18.42;12.25;;;;;;;19.79;67.11;97388.38;5091569;28;20028;-75
2021/08/01 09:35:42;;;;;;;18.92;11.13;;;;;;;19.85;67.75;97395.19;5092920;28;20077;-75
2021/08/01 09:38:07;;;;;;;16.67;10.50;;;;;;;19.98;68.03;97397.72;5092865;28;20031;-75
2021/08/01 09:40:34;;;;;;;16.60;11.75;;;;;;;20.15;70.94;97410.16;5092860;28;20024;-76
2021/08/01 09:43:21;;;;;;;14.40;10.57;;;;;;;20.34;71.79;97423.03;5092779;28;20028;-76
2021/08/01 09:45:58;;;;;;;13.65;10.40;;;;;;;20.55;71.81;97436.28;5092938;28;20073;-76
2021/08/01 09:48:23;;;;;;;12.00;9.07;;;;;;;20.72;71.32;97445.94;5092693;28;20354;-75
2021/08/01 09:51:08;;;;;;;15.32;9.55;;;;;;;20.87;70.82;97444.06;5092959;28;20165;-75
2021/08/01 09:53:35;;;;;;;11.35;8.65;;;;;;;21.02;71.47;97455.28;5092768;28;20502;-75
2021/08/01 09:56:14;;;;;;;10.05;6.85;;;;;;;21.14;70.29;97468.09;5092738;28;20434;-75
2021/08/01 09:58:40;;;;;;;8.55;6.93;;;;;;;21.23;70.15;97488.06;5092719;28;20032;-75
2021/08/01 10:01:06;;;;;;;11.35;7.47;;;;;;;21.34;69.87;97476.94;5092665;28;20024;-75
2021/08/01 10:03:40;;;;;;;11.20;7.60;;;;;;;21.41;69.46;97483.31;5092500;28;20561;-74
2021/08/01 10:06:17;;;;;;;10.32;7.07;;;;;;;21.50;69.75;97498.91;5092954;28;20040;-73
2021/08/01 10:08:42;;;;;;;13.15;6.90;;;;;;;21.55;68.88;97532.81;5092694;28;20052;-72
2021/08/01 10:11:18;;;;;;;8.90;6.28;;;;;;;21.56;68.32;97534.41;5092583;28;20085;-73
2021/08/01 10:13:49;;;;;;;9.32;6.50;;;;;;;21.60;68.18;97559.53;5092419;28;20031;-73
2021/08/01 10:16:15;;;;;;;8.82;6.20;;;;;;;21.62;67.69;97576.72;5092385;28;20466;-72
2021/08/01 10:18:42;;;;;;;9.70;5.95;;;;;;;21.62;67.63;97607.41;5092275;28;20047;-72
2021/08/01 10:21:08;;;;;;;10.18;6.85;;;;;;;21.60;67.35;97618.13;5092362;28;20056;-72
2021/08/01 10:23:43;;;;;;;8.77;6.90;;;;;;;21.60;67.66;97603.38;5092208;28;20035;-72
2021/08/01 10:26:10;;;;;;;10.88;7.10;;;;;;;21.58;67.11;97606.53;5092241;28;20093;-72
2021/08/01 10:28:42;;;;;;;6.30;5.43;;;;;;;21.62;67.42;97614.94;5092122;28;20024;-72
2021/08/01 10:31:11;;;;;;;12.70;8.48;;;;;;;21.63;67.28;97631.31;5092193;28;20056;-73
2021/08/01 10:33:44;;;;;;;9.20;6.75;;;;;;;21.64;67.59;97644.06;5092611;28;20457;-72
2021/08/01 10:36:11;;;;;;;8.48;6.40;;;;;;;21.65;67.81;97648.47;5092079;28;20542;-72
2021/08/01 10:38:38;;;;;;;9.75;6.88;;;;;;;21.63;67.37;97633.28;5092161;28;20065;-73
2021/08/01 10:41:06;;;;;;;13.27;8.05;;;;;;;21.61;67.58;97625.28;5092050;28;20543;-72
2021/08/01 10:43:36;;;;;;;11.00;7.40;;;;;;;21.56;67.19;97629.28;5092101;28;20028;-72
2021/08/01 10:46:03;;;;;;;9.75;7.28;;;;;;;21.53;67.25;97632.84;5092042;28;20032;-72
2021/08/01 10:48:30;;;;;;;11.23;7.60;;;;;;;21.48;67.42;97636.00;5091966;28;20035;-71
2021/08/01 10:50:57;;;;;;;13.55;7.25;;;;;;;21.44;67.19;97651.91;5092065;28;20025;-72
2021/08/01 10:53:27;;;;;;;13.40;8.18;;;;;;;21.39;67.58;97664.25;5091840;28;20419;-71
2021/08/01 10:56:02;;;;;;;8.32;6.38;;;;;;;21.34;67.33;97647.88;5092802;28;20093;-71
2021/08/01 10:58:34;;;;;;;7.70;6.05;;;;;;;21.32;67.63;97632.69;5095582;28;20493;-71
2021/08/01 11:01:04;;;;;;;8.93;6.15;;;;;;;21.32;67.67;97604.81;5095671;28;20050;-72
2021/08/01 11:03:31;;;;;;;10.63;7.57;;;;;;;21.33;67.95;97553.41;5094041;28;20453;-74
2021/08/01 11:05:58;;;;;;;9.73;5.90;;;;;;;21.35;68.35;97503.63;5095664;28;20126;-73
2021/08/01 11:08:24;;;;;;;9.70;7.05;;;;;;;21.35;67.65;97507.22;5095628;28;20115;-73
2021/08/01 11:11:17;;;;;;;8.73;6.95;;;;;;;21.42;67.81;97512.03;5095816;28;20271;-73
2021/08/01 11:13:47;;;;;;;8.80;7.50;;;;;;;21.49;67.76;97500.91;5095595;28;20027;-75
2021/08/01 11:16:31;;;;;;;8.35;6.85;;;;;;;21.55;67.82;97476.22;5095826;28;20031;-75
2021/08/01 11:18:57;;;;;;;9.63;6.55;;;;;;;21.57;67.95;97443.13;5095374;28;20496;-74
2021/08/01 11:21:39;;;;;;;12.32;7.38;;;;;;;21.58;67.90;97443.94;5095459;28;20032;-74
2021/08/01 11:24:08;;;;;;;12.05;7.25;;;;;;;21.62;68.12;97439.19;5095527;28;20055;-75
2021/08/01 11:26:35;;;;;;;;;;;;;;;21.69;68.07;97453.16;5094508;28;20550;-75
2021/08/01 11:29:11;;;;;;;11.13;7.20;;;;;;;21.78;68.37;97450.78;5095173;28;20369;-74